首页
METAR-TAF:

METAR-TAF

机场 :

Shelbyville, 田纳西州, 美国

纬度: 35-33-34N, 经度: 086-26-33W, 海拔: 244米

当前天气观测

该预报发布于24分钟前的05:35 UTC
风速3节,风向东转东南
温度 20°C
湿度 88%
气压 1019 hPa
能見度: 16.1公里
天空无云

METAR: KSYI 270535Z AUTO 11003KT 10SM CLR 20/18 A3008 RMK A01

时间: 00:59 (05:59 UTC)


TAF: 丢失

超过4000个机场的气象观测和天气预报(METAR&TAF报告)。

可查询的气象台以黄色和红色小点在地图上表示。

将鼠标移到小点上方,可查看气象台名称。

然后点击查看天气观测和预报。

如需切换地图:点击带黑十字的绿色按钮放大地图;点击带横线的绿色按钮缩小地图;或者点击绿色箭头查看邻近地区的地图。


METAR-TAF: